W94 weather

Camp Peary Landing Strip
Williamsburg, Virginia, United States

Public forecast

Using degrees Fahrenheit for public forecast. Weather courtesy of forecast.io.

METAR (pilot weather report)

Closest report is Williamsburg Jamestown Airport, 5.5 nm (10.1 km) SW. Retrieved 2019/06/16 15:35 UTC (19 minutes ago):

KJGG 161535Z AUTO 23012KT 10SM CLR 29/19 A3000 RMK AO1

TAF (pilot weather forecast)

Forecast is more than 12 hours old.

Closest forecast is Felker Army Air Field, 10.5 nm (19.4 km) S. Retrieved 2019/06/14 18:03 UTC (2 days ago):

TAF TAF KFAF 141800Z 1418/1524 30010G15KT 9999 SKC QNH3005INS BECMG 1422/1423 22009KT 9999 FEW200 QNH3008INS BECMG 1518/1519 20010G15KT 9999 FEW120 QNH3020INS TX25/1420Z TN16/1509Z LAST NO AMDS AFT 1503 NEXT 1710